sensor_id;sensor_type;location;lat;lon;timestamp;P1;durP1;ratioP1;P2;durP2;ratioP2
51810;SDS011;52468;40.116;18.296;2023-05-09T00:00:52;14.77;;;10.83;;
51810;SDS011;52468;40.116;18.296;2023-05-09T00:03:20;13.60;;;9.83;;
51810;SDS011;52468;40.116;18.296;2023-05-09T00:05:48;14.63;;;11.53;;
51810;SDS011;52468;40.116;18.296;2023-05-09T00:08:16;24.73;;;11.70;;
51810;SDS011;52468;40.116;18.296;2023-05-09T00:10:44;15.77;;;10.83;;
51810;SDS011;52468;40.116;18.296;2023-05-09T00:13:11;16.70;;;11.83;;
51810;SDS011;52468;40.116;18.296;2023-05-09T00:15:40;16.37;;;12.13;;
51810;SDS011;52468;40.116;18.296;2023-05-09T00:18:07;20.97;;;13.30;;
51810;SDS011;52468;40.116;18.296;2023-05-09T00:20:35;19.70;;;12.80;;
51810;SDS011;52468;40.116;18.296;2023-05-09T00:23:03;21.17;;;12.03;;
51810;SDS011;52468;40.116;18.296;2023-05-09T00:25:31;16.57;;;11.23;;
51810;SDS011;52468;40.116;18.296;2023-05-09T00:27:59;21.90;;;12.60;;
51810;SDS011;52468;40.116;18.296;2023-05-09T00:30:27;14.93;;;11.13;;
51810;SDS011;52468;40.116;18.296;2023-05-09T00:32:55;20.77;;;12.53;;
51810;SDS011;52468;40.116;18.296;2023-05-09T00:35:23;17.43;;;12.13;;
51810;SDS011;52468;40.116;18.296;2023-05-09T00:37:51;19.27;;;11.80;;
51810;SDS011;52468;40.116;18.296;2023-05-09T00:40:19;20.07;;;12.17;;
51810;SDS011;52468;40.116;18.296;2023-05-09T00:42:47;16.70;;;11.37;;
51810;SDS011;52468;40.116;18.296;2023-05-09T00:45:15;17.23;;;11.77;;
51810;SDS011;52468;40.116;18.296;2023-05-09T00:47:43;14.57;;;11.90;;
51810;SDS011;52468;40.116;18.296;2023-05-09T00:50:11;14.73;;;10.83;;
51810;SDS011;52468;40.116;18.296;2023-05-09T00:52:39;17.60;;;10.07;;
51810;SDS011;52468;40.116;18.296;2023-05-09T00:55:08;17.23;;;12.63;;
51810;SDS011;52468;40.116;18.296;2023-05-09T00:57:36;18.77;;;12.27;;
51810;SDS011;52468;40.116;18.296;2023-05-09T01:00:04;17.70;;;12.13;;
51810;SDS011;52468;40.116;18.296;2023-05-09T01:02:33;15.93;;;11.27;;
51810;SDS011;52468;40.116;18.296;2023-05-09T01:05:00;21.37;;;12.53;;
51810;SDS011;52468;40.116;18.296;2023-05-09T01:07:32;16.23;;;12.20;;
51810;SDS011;52468;40.116;18.296;2023-05-09T01:13:04;17.43;;;10.83;;
51810;SDS011;52468;40.116;18.296;2023-05-09T01:15:57;18.40;;;11.07;;
51810;SDS011;52468;40.116;18.296;2023-05-09T01:18:46;15.73;;;12.10;;
51810;SDS011;52468;40.116;18.296;2023-05-09T01:21:27;18.33;;;11.80;;
51810;SDS011;52468;40.116;18.296;2023-05-09T01:26:43;15.17;;;10.40;;
51810;SDS011;52468;40.116;18.296;2023-05-09T01:29:46;17.30;;;10.23;;
51810;SDS011;52468;40.116;18.296;2023-05-09T01:32:24;17.17;;;9.97;;
51810;SDS011;52468;40.116;18.296;2023-05-09T01:34:55;15.73;;;9.90;;
51810;SDS011;52468;40.116;18.296;2023-05-09T01:37:36;13.20;;;9.83;;
51810;SDS011;52468;40.116;18.296;2023-05-09T01:40:13;12.37;;;9.07;;
51810;SDS011;52468;40.116;18.296;2023-05-09T01:42:44;18.57;;;10.70;;
51810;SDS011;52468;40.116;18.296;2023-05-09T01:45:17;15.10;;;9.77;;
51810;SDS011;52468;40.116;18.296;2023-05-09T01:47:46;11.47;;;9.30;;
51810;SDS011;52468;40.116;18.296;2023-05-09T01:50:17;13.87;;;8.63;;
51810;SDS011;52468;40.116;18.296;2023-05-09T01:52:46;14.13;;;8.73;;
51810;SDS011;52468;40.116;18.296;2023-05-09T01:55:16;9.60;;;7.90;;
51810;SDS011;52468;40.116;18.296;2023-05-09T01:57:46;11.40;;;7.13;;
51810;SDS011;52468;40.116;18.296;2023-05-09T02:00:16;10.73;;;8.23;;
51810;SDS011;52468;40.116;18.296;2023-05-09T02:02:46;14.10;;;7.73;;
51810;SDS011;52468;40.116;18.296;2023-05-09T02:05:14;11.53;;;7.80;;
51810;SDS011;52468;40.116;18.296;2023-05-09T02:07:44;7.77;;;6.33;;
51810;SDS011;52468;40.116;18.296;2023-05-09T02:10:14;13.40;;;6.83;;
51810;SDS011;52468;40.116;18.296;2023-05-09T02:12:43;8.97;;;6.13;;
51810;SDS011;52468;40.116;18.296;2023-05-09T02:15:10;6.87;;;5.50;;
51810;SDS011;52468;40.116;18.296;2023-05-09T02:17:40;8.43;;;5.43;;
51810;SDS011;52468;40.116;18.296;2023-05-09T02:20:08;7.10;;;4.97;;
51810;SDS011;52468;40.116;18.296;2023-05-09T02:22:40;8.07;;;4.87;;
51810;SDS011;52468;40.116;18.296;2023-05-09T02:25:10;7.73;;;4.60;;
51810;SDS011;52468;40.116;18.296;2023-05-09T02:27:41;7.90;;;5.03;;
51810;SDS011;52468;40.116;18.296;2023-05-09T02:30:18;11.53;;;5.00;;
51810;SDS011;52468;40.116;18.296;2023-05-09T02:32:52;8.03;;;4.23;;
51810;SDS011;52468;40.116;18.296;2023-05-09T02:35:25;6.80;;;4.93;;
51810;SDS011;52468;40.116;18.296;2023-05-09T02:37:55;11.83;;;4.43;;
51810;SDS011;52468;40.116;18.296;2023-05-09T02:40:25;7.70;;;4.33;;
51810;SDS011;52468;40.116;18.296;2023-05-09T02:42:55;7.23;;;4.90;;
51810;SDS011;52468;40.116;18.296;2023-05-09T02:45:23;7.23;;;4.37;;
51810;SDS011;52468;40.116;18.296;2023-05-09T02:47:51;7.30;;;4.40;;
51810;SDS011;52468;40.116;18.296;2023-05-09T02:50:21;6.30;;;4.90;;
51810;SDS011;52468;40.116;18.296;2023-05-09T02:52:49;10.20;;;4.00;;
51810;SDS011;52468;40.116;18.296;2023-05-09T02:55:17;11.80;;;4.60;;
51810;SDS011;52468;40.116;18.296;2023-05-09T02:57:45;7.07;;;4.73;;
51810;SDS011;52468;40.116;18.296;2023-05-09T03:00:13;6.27;;;5.33;;
51810;SDS011;52468;40.116;18.296;2023-05-09T03:02:41;7.67;;;4.80;;
51810;SDS011;52468;40.116;18.296;2023-05-09T03:05:15;7.00;;;4.68;;
51810;SDS011;52468;40.116;18.296;2023-05-09T03:07:43;6.20;;;4.53;;
51810;SDS011;52468;40.116;18.296;2023-05-09T03:10:12;6.87;;;4.53;;
51810;SDS011;52468;40.116;18.296;2023-05-09T03:12:41;7.23;;;4.43;;
51810;SDS011;52468;40.116;18.296;2023-05-09T03:15:11;6.80;;;4.70;;
51810;SDS011;52468;40.116;18.296;2023-05-09T03:17:40;6.33;;;4.37;;
51810;SDS011;52468;40.116;18.296;2023-05-09T03:20:08;6.13;;;4.23;;
51810;SDS011;52468;40.116;18.296;2023-05-09T03:22:36;5.80;;;4.27;;
51810;SDS011;52468;40.116;18.296;2023-05-09T03:25:07;12.97;;;5.17;;
51810;SDS011;52468;40.116;18.296;2023-05-09T03:27:35;5.53;;;4.50;;
51810;SDS011;52468;40.116;18.296;2023-05-09T03:30:06;6.40;;;4.13;;
51810;SDS011;52468;40.116;18.296;2023-05-09T03:32:35;7.80;;;4.90;;
51810;SDS011;52468;40.116;18.296;2023-05-09T03:35:03;7.20;;;4.77;;
51810;SDS011;52468;40.116;18.296;2023-05-09T03:37:32;5.80;;;5.20;;
51810;SDS011;52468;40.116;18.296;2023-05-09T03:39:59;6.00;;;4.90;;
51810;SDS011;52468;40.116;18.296;2023-05-09T03:42:31;7.53;;;5.20;;
51810;SDS011;52468;40.116;18.296;2023-05-09T03:45:01;8.97;;;4.87;;
51810;SDS011;52468;40.116;18.296;2023-05-09T03:47:30;11.57;;;4.57;;
51810;SDS011;52468;40.116;18.296;2023-05-09T03:49:58;6.93;;;4.80;;
51810;SDS011;52468;40.116;18.296;2023-05-09T03:52:26;7.20;;;5.13;;
51810;SDS011;52468;40.116;18.296;2023-05-09T03:54:54;9.40;;;5.10;;
51810;SDS011;52468;40.116;18.296;2023-05-09T03:57:22;8.40;;;5.50;;
51810;SDS011;52468;40.116;18.296;2023-05-09T03:59:52;7.67;;;4.30;;
51810;SDS011;52468;40.116;18.296;2023-05-09T04:02:20;8.20;;;5.73;;
51810;SDS011;52468;40.116;18.296;2023-05-09T04:04:49;7.57;;;4.37;;
51810;SDS011;52468;40.116;18.296;2023-05-09T04:07:20;5.77;;;3.80;;
51810;SDS011;52468;40.116;18.296;2023-05-09T04:09:48;5.63;;;4.57;;
51810;SDS011;52468;40.116;18.296;2023-05-09T04:12:16;4.20;;;3.80;;
51810;SDS011;52468;40.116;18.296;2023-05-09T04:14:45;8.67;;;4.47;;
51810;SDS011;52468;40.116;18.296;2023-05-09T04:17:15;8.30;;;4.37;;
51810;SDS011;52468;40.116;18.296;2023-05-09T04:19:44;6.47;;;3.93;;
51810;SDS011;52468;40.116;18.296;2023-05-09T04:22:12;8.60;;;4.33;;
51810;SDS011;52468;40.116;18.296;2023-05-09T04:24:40;4.47;;;3.73;;
51810;SDS011;52468;40.116;18.296;2023-05-09T04:27:08;5.73;;;3.60;;
51810;SDS011;52468;40.116;18.296;2023-05-09T04:29:37;6.17;;;3.23;;
51810;SDS011;52468;40.116;18.296;2023-05-09T04:32:05;4.17;;;3.77;;
51810;SDS011;52468;40.116;18.296;2023-05-09T04:34:34;7.03;;;3.53;;
51810;SDS011;52468;40.116;18.296;2023-05-09T04:37:08;7.10;;;2.80;;
51810;SDS011;52468;40.116;18.296;2023-05-09T04:39:37;6.73;;;3.33;;
51810;SDS011;52468;40.116;18.296;2023-05-09T04:42:13;5.80;;;2.80;;
51810;SDS011;52468;40.116;18.296;2023-05-09T04:44:41;4.67;;;2.70;;
51810;SDS011;52468;40.116;18.296;2023-05-09T04:47:10;3.40;;;3.10;;
51810;SDS011;52468;40.116;18.296;2023-05-09T04:49:38;2.87;;;2.50;;
51810;SDS011;52468;40.116;18.296;2023-05-09T04:52:06;4.00;;;2.63;;
51810;SDS011;52468;40.116;18.296;2023-05-09T04:54:34;3.50;;;2.77;;
51810;SDS011;52468;40.116;18.296;2023-05-09T04:57:03;4.40;;;3.23;;
51810;SDS011;52468;40.116;18.296;2023-05-09T04:59:41;5.23;;;3.20;;
51810;SDS011;52468;40.116;18.296;2023-05-09T05:02:11;5.47;;;3.23;;
51810;SDS011;52468;40.116;18.296;2023-05-09T05:04:40;5.00;;;3.37;;
51810;SDS011;52468;40.116;18.296;2023-05-09T05:07:08;4.83;;;3.53;;
51810;SDS011;52468;40.116;18.296;2023-05-09T05:09:37;4.73;;;3.13;;
51810;SDS011;52468;40.116;18.296;2023-05-09T05:12:05;4.43;;;3.80;;
51810;SDS011;52468;40.116;18.296;2023-05-09T05:14:36;4.50;;;3.10;;
51810;SDS011;52468;40.116;18.296;2023-05-09T05:17:07;5.53;;;3.00;;
51810;SDS011;52468;40.116;18.296;2023-05-09T05:19:35;5.33;;;3.33;;
51810;SDS011;52468;40.116;18.296;2023-05-09T05:22:05;4.93;;;3.00;;
51810;SDS011;52468;40.116;18.296;2023-05-09T05:24:35;5.67;;;2.87;;
51810;SDS011;52468;40.116;18.296;2023-05-09T05:27:03;4.20;;;3.23;;
51810;SDS011;52468;40.116;18.296;2023-05-09T05:29:31;4.60;;;3.80;;
51810;SDS011;52468;40.116;18.296;2023-05-09T05:31:59;5.17;;;2.50;;
51810;SDS011;52468;40.116;18.296;2023-05-09T05:34:27;5.40;;;2.93;;
51810;SDS011;52468;40.116;18.296;2023-05-09T05:36:55;4.40;;;2.67;;
51810;SDS011;52468;40.116;18.296;2023-05-09T05:39:23;6.73;;;3.27;;
51810;SDS011;52468;40.116;18.296;2023-05-09T05:41:52;3.93;;;3.23;;
51810;SDS011;52468;40.116;18.296;2023-05-09T05:44:20;5.60;;;3.33;;
51810;SDS011;52468;40.116;18.296;2023-05-09T05:46:48;4.60;;;3.33;;
51810;SDS011;52468;40.116;18.296;2023-05-09T05:49:17;5.43;;;3.40;;
51810;SDS011;52468;40.116;18.296;2023-05-09T05:51:45;7.07;;;2.87;;
51810;SDS011;52468;40.116;18.296;2023-05-09T05:54:13;3.60;;;2.67;;
51810;SDS011;52468;40.116;18.296;2023-05-09T05:56:41;4.13;;;2.80;;
51810;SDS011;52468;40.116;18.296;2023-05-09T05:59:09;3.80;;;2.57;;
51810;SDS011;52468;40.116;18.296;2023-05-09T06:01:39;3.37;;;2.60;;
51810;SDS011;52468;40.116;18.296;2023-05-09T06:04:07;5.80;;;2.63;;
51810;SDS011;52468;40.116;18.296;2023-05-09T06:06:34;3.40;;;2.13;;
51810;SDS011;52468;40.116;18.296;2023-05-09T06:09:02;4.63;;;3.33;;
51810;SDS011;52468;40.116;18.296;2023-05-09T06:11:30;3.43;;;2.60;;
51810;SDS011;52468;40.116;18.296;2023-05-09T06:13:58;2.77;;;2.07;;
51810;SDS011;52468;40.116;18.296;2023-05-09T06:16:26;6.77;;;2.63;;
51810;SDS011;52468;40.116;18.296;2023-05-09T06:18:54;3.33;;;2.90;;
51810;SDS011;52468;40.116;18.296;2023-05-09T06:21:22;3.47;;;2.87;;
51810;SDS011;52468;40.116;18.296;2023-05-09T06:23:50;4.03;;;2.33;;
51810;SDS011;52468;40.116;18.296;2023-05-09T06:26:31;3.30;;;2.60;;
51810;SDS011;52468;40.116;18.296;2023-05-09T06:28:59;6.77;;;2.70;;
51810;SDS011;52468;40.116;18.296;2023-05-09T06:31:27;4.93;;;2.37;;
51810;SDS011;52468;40.116;18.296;2023-05-09T06:33:55;2.30;;;2.10;;
51810;SDS011;52468;40.116;18.296;2023-05-09T06:36:23;4.87;;;2.40;;
51810;SDS011;52468;40.116;18.296;2023-05-09T06:38:51;4.00;;;2.87;;
51810;SDS011;52468;40.116;18.296;2023-05-09T06:41:19;4.43;;;2.80;;
51810;SDS011;52468;40.116;18.296;2023-05-09T06:43:47;3.20;;;2.43;;
51810;SDS011;52468;40.116;18.296;2023-05-09T06:46:15;7.10;;;3.37;;
51810;SDS011;52468;40.116;18.296;2023-05-09T06:48:43;4.90;;;3.17;;
51810;SDS011;52468;40.116;18.296;2023-05-09T06:51:11;6.10;;;3.20;;
51810;SDS011;52468;40.116;18.296;2023-05-09T06:53:39;4.57;;;2.50;;
51810;SDS011;52468;40.116;18.296;2023-05-09T06:56:07;6.77;;;3.20;;
51810;SDS011;52468;40.116;18.296;2023-05-09T06:58:35;5.00;;;2.33;;
51810;SDS011;52468;40.116;18.296;2023-05-09T07:01:03;4.80;;;3.17;;
51810;SDS011;52468;40.116;18.296;2023-05-09T07:03:31;3.37;;;2.50;;
51810;SDS011;52468;40.116;18.296;2023-05-09T07:05:59;5.43;;;2.87;;
51810;SDS011;52468;40.116;18.296;2023-05-09T07:08:27;4.07;;;2.67;;
51810;SDS011;52468;40.116;18.296;2023-05-09T07:10:55;5.23;;;3.13;;
51810;SDS011;52468;40.116;18.296;2023-05-09T07:13:23;4.97;;;2.60;;
51810;SDS011;52468;40.116;18.296;2023-05-09T07:15:51;4.53;;;2.97;;
51810;SDS011;52468;40.116;18.296;2023-05-09T07:18:19;4.47;;;2.87;;
51810;SDS011;52468;40.116;18.296;2023-05-09T07:20:47;4.70;;;2.60;;
51810;SDS011;52468;40.116;18.296;2023-05-09T07:23:14;4.00;;;2.47;;
51810;SDS011;52468;40.116;18.296;2023-05-09T07:25:42;6.17;;;4.13;;
51810;SDS011;52468;40.116;18.296;2023-05-09T07:28:11;4.43;;;2.60;;
51810;SDS011;52468;40.116;18.296;2023-05-09T07:30:39;3.00;;;2.63;;
51810;SDS011;52468;40.116;18.296;2023-05-09T07:33:07;8.40;;;3.10;;
51810;SDS011;52468;40.116;18.296;2023-05-09T07:35:35;7.40;;;3.50;;
51810;SDS011;52468;40.116;18.296;2023-05-09T07:38:03;4.70;;;3.27;;
51810;SDS011;52468;40.116;18.296;2023-05-09T07:40:32;5.50;;;3.33;;
51810;SDS011;52468;40.116;18.296;2023-05-09T07:43:02;8.40;;;3.23;;
51810;SDS011;52468;40.116;18.296;2023-05-09T07:45:30;3.87;;;2.50;;
51810;SDS011;52468;40.116;18.296;2023-05-09T07:47:58;4.03;;;3.53;;
51810;SDS011;52468;40.116;18.296;2023-05-09T07:50:26;3.43;;;3.13;;
51810;SDS011;52468;40.116;18.296;2023-05-09T07:52:54;5.37;;;2.97;;
51810;SDS011;52468;40.116;18.296;2023-05-09T07:55:22;7.33;;;2.90;;
51810;SDS011;52468;40.116;18.296;2023-05-09T07:57:50;5.73;;;3.17;;
51810;SDS011;52468;40.116;18.296;2023-05-09T08:00:18;3.70;;;3.07;;
51810;SDS011;52468;40.116;18.296;2023-05-09T08:02:52;4.40;;;3.17;;
51810;SDS011;52468;40.116;18.296;2023-05-09T08:05:20;5.37;;;2.90;;
51810;SDS011;52468;40.116;18.296;2023-05-09T08:07:48;2.30;;;2.10;;
51810;SDS011;52468;40.116;18.296;2023-05-09T08:10:16;5.17;;;3.13;;
51810;SDS011;52468;40.116;18.296;2023-05-09T08:12:44;5.53;;;1.90;;
51810;SDS011;52468;40.116;18.296;2023-05-09T08:15:12;2.77;;;2.33;;
51810;SDS011;52468;40.116;18.296;2023-05-09T08:17:40;3.03;;;2.70;;
51810;SDS011;52468;40.116;18.296;2023-05-09T08:20:08;2.90;;;2.40;;
51810;SDS011;52468;40.116;18.296;2023-05-09T08:22:37;5.37;;;2.53;;
51810;SDS011;52468;40.116;18.296;2023-05-09T08:25:06;2.87;;;2.37;;
51810;SDS011;52468;40.116;18.296;2023-05-09T08:27:35;3.10;;;2.40;;
51810;SDS011;52468;40.116;18.296;2023-05-09T08:30:03;4.30;;;2.60;;
51810;SDS011;52468;40.116;18.296;2023-05-09T08:32:31;5.77;;;4.00;;
51810;SDS011;52468;40.116;18.296;2023-05-09T08:34:59;7.17;;;4.37;;
51810;SDS011;52468;40.116;18.296;2023-05-09T08:37:27;8.40;;;4.07;;
51810;SDS011;52468;40.116;18.296;2023-05-09T08:39:55;5.60;;;3.43;;
51810;SDS011;52468;40.116;18.296;2023-05-09T08:42:23;5.00;;;4.50;;
51810;SDS011;52468;40.116;18.296;2023-05-09T08:44:52;5.13;;;3.57;;
51810;SDS011;52468;40.116;18.296;2023-05-09T08:47:20;4.13;;;2.70;;
51810;SDS011;52468;40.116;18.296;2023-05-09T08:49:48;4.93;;;3.63;;
51810;SDS011;52468;40.116;18.296;2023-05-09T08:52:17;5.17;;;2.80;;
51810;SDS011;52468;40.116;18.296;2023-05-09T08:54:46;6.43;;;2.90;;
51810;SDS011;52468;40.116;18.296;2023-05-09T08:57:14;4.40;;;2.70;;
51810;SDS011;52468;40.116;18.296;2023-05-09T08:59:42;4.80;;;3.23;;
51810;SDS011;52468;40.116;18.296;2023-05-09T09:02:11;4.77;;;3.17;;
51810;SDS011;52468;40.116;18.296;2023-05-09T09:04:40;3.10;;;2.73;;
51810;SDS011;52468;40.116;18.296;2023-05-09T09:07:08;6.30;;;3.33;;
51810;SDS011;52468;40.116;18.296;2023-05-09T09:09:37;5.90;;;3.37;;
51810;SDS011;52468;40.116;18.296;2023-05-09T09:12:12;5.63;;;3.63;;
51810;SDS011;52468;40.116;18.296;2023-05-09T09:14:47;5.00;;;3.83;;
51810;SDS011;52468;40.116;18.296;2023-05-09T09:17:19;4.17;;;3.73;;
51810;SDS011;52468;40.116;18.296;2023-05-09T09:19:48;4.50;;;2.83;;
51810;SDS011;52468;40.116;18.296;2023-05-09T09:22:17;5.47;;;3.47;;
51810;SDS011;52468;40.116;18.296;2023-05-09T09:24:45;3.80;;;3.50;;
51810;SDS011;52468;40.116;18.296;2023-05-09T09:27:13;16.40;;;3.47;;
51810;SDS011;52468;40.116;18.296;2023-05-09T09:29:41;5.97;;;3.50;;
51810;SDS011;52468;40.116;18.296;2023-05-09T09:32:09;4.40;;;3.00;;
51810;SDS011;52468;40.116;18.296;2023-05-09T09:34:37;4.93;;;4.50;;
51810;SDS011;52468;40.116;18.296;2023-05-09T09:37:05;4.23;;;3.40;;
51810;SDS011;52468;40.116;18.296;2023-05-09T09:39:33;4.03;;;3.63;;
51810;SDS011;52468;40.116;18.296;2023-05-09T09:42:08;5.17;;;3.60;;
51810;SDS011;52468;40.116;18.296;2023-05-09T09:44:37;5.23;;;3.63;;
51810;SDS011;52468;40.116;18.296;2023-05-09T09:47:05;7.17;;;3.50;;
51810;SDS011;52468;40.116;18.296;2023-05-09T09:49:37;4.37;;;3.50;;
51810;SDS011;52468;40.116;18.296;2023-05-09T09:52:12;4.13;;;3.57;;
51810;SDS011;52468;40.116;18.296;2023-05-09T09:54:50;4.57;;;3.60;;
51810;SDS011;52468;40.116;18.296;2023-05-09T09:57:34;6.63;;;3.90;;
51810;SDS011;52468;40.116;18.296;2023-05-09T10:00:04;5.07;;;4.23;;
51810;SDS011;52468;40.116;18.296;2023-05-09T10:02:32;7.87;;;3.53;;
51810;SDS011;52468;40.116;18.296;2023-05-09T10:05:07;6.50;;;3.83;;
51810;SDS011;52468;40.116;18.296;2023-05-09T10:07:35;5.00;;;3.77;;
51810;SDS011;52468;40.116;18.296;2023-05-09T10:10:03;5.53;;;3.60;;
51810;SDS011;52468;40.116;18.296;2023-05-09T10:12:32;6.13;;;3.97;;
51810;SDS011;52468;40.116;18.296;2023-05-09T10:15:02;4.47;;;3.13;;
51810;SDS011;52468;40.116;18.296;2023-05-09T10:17:33;6.03;;;4.10;;
51810;SDS011;52468;40.116;18.296;2023-05-09T10:20:02;4.60;;;2.70;;
51810;SDS011;52468;40.116;18.296;2023-05-09T10:22:32;4.37;;;2.90;;
51810;SDS011;52468;40.116;18.296;2023-05-09T10:25:03;4.60;;;3.33;;
51810;SDS011;52468;40.116;18.296;2023-05-09T10:27:35;5.60;;;3.77;;
51810;SDS011;52468;40.116;18.296;2023-05-09T10:30:07;6.80;;;3.07;;
51810;SDS011;52468;40.116;18.296;2023-05-09T10:33:01;6.10;;;3.30;;
51810;SDS011;52468;40.116;18.296;2023-05-09T10:35:39;4.80;;;2.80;;
51810;SDS011;52468;40.116;18.296;2023-05-09T10:38:11;5.27;;;3.10;;
51810;SDS011;52468;40.116;18.296;2023-05-09T10:40:40;5.53;;;4.40;;
51810;SDS011;52468;40.116;18.296;2023-05-09T10:43:08;5.77;;;4.33;;
51810;SDS011;52468;40.116;18.296;2023-05-09T10:45:36;7.10;;;4.90;;
51810;SDS011;52468;40.116;18.296;2023-05-09T10:48:05;5.80;;;4.67;;
51810;SDS011;52468;40.116;18.296;2023-05-09T10:50:35;7.50;;;5.70;;
51810;SDS011;52468;40.116;18.296;2023-05-09T10:53:06;9.93;;;5.63;;
51810;SDS011;52468;40.116;18.296;2023-05-09T10:55:47;10.27;;;5.63;;
51810;SDS011;52468;40.116;18.296;2023-05-09T10:58:26;8.70;;;6.20;;
51810;SDS011;52468;40.116;18.296;2023-05-09T11:01:00;7.90;;;5.60;;
51810;SDS011;52468;40.116;18.296;2023-05-09T11:03:53;16.43;;;5.03;;
51810;SDS011;52468;40.116;18.296;2023-05-09T11:12:13;8.93;;;4.78;;
51810;SDS011;52468;40.116;18.296;2023-05-09T11:17:12;8.03;;;5.57;;
51810;SDS011;52468;40.116;18.296;2023-05-09T11:24:49;9.30;;;6.07;;
51810;SDS011;52468;40.116;18.296;2023-05-09T11:27:20;6.73;;;5.23;;
51810;SDS011;52468;40.116;18.296;2023-05-09T11:29:55;8.10;;;5.35;;
51810;SDS011;52468;40.116;18.296;2023-05-09T11:32:29;9.02;;;5.47;;
51810;SDS011;52468;40.116;18.296;2023-05-09T11:35:09;7.03;;;4.80;;
51810;SDS011;52468;40.116;18.296;2023-05-09T11:40:21;8.10;;;5.03;;
51810;SDS011;52468;40.116;18.296;2023-05-09T11:42:50;5.03;;;4.20;;
51810;SDS011;52468;40.116;18.296;2023-05-09T11:45:21;6.07;;;4.50;;
51810;SDS011;52468;40.116;18.296;2023-05-09T11:47:50;5.33;;;3.93;;
51810;SDS011;52468;40.116;18.296;2023-05-09T11:50:19;11.20;;;6.00;;
51810;SDS011;52468;40.116;18.296;2023-05-09T11:52:48;6.43;;;5.47;;
51810;SDS011;52468;40.116;18.296;2023-05-09T11:55:16;5.27;;;4.53;;
51810;SDS011;52468;40.116;18.296;2023-05-09T11:57:49;7.10;;;4.83;;
51810;SDS011;52468;40.116;18.296;2023-05-09T12:00:21;9.07;;;5.80;;
51810;SDS011;52468;40.116;18.296;2023-05-09T12:02:50;5.90;;;4.97;;
51810;SDS011;52468;40.116;18.296;2023-05-09T12:05:20;5.60;;;4.53;;
51810;SDS011;52468;40.116;18.296;2023-05-09T12:07:48;7.97;;;5.73;;
51810;SDS011;52468;40.116;18.296;2023-05-09T12:10:20;5.97;;;4.63;;
51810;SDS011;52468;40.116;18.296;2023-05-09T12:12:52;6.77;;;4.93;;
51810;SDS011;52468;40.116;18.296;2023-05-09T12:15:23;5.97;;;4.70;;
51810;SDS011;52468;40.116;18.296;2023-05-09T12:18:00;6.07;;;4.60;;
51810;SDS011;52468;40.116;18.296;2023-05-09T12:20:46;8.80;;;5.50;;
51810;SDS011;52468;40.116;18.296;2023-05-09T12:23:16;6.63;;;5.30;;
51810;SDS011;52468;40.116;18.296;2023-05-09T12:25:46;5.70;;;4.77;;
51810;SDS011;52468;40.116;18.296;2023-05-09T12:28:21;5.50;;;4.80;;
51810;SDS011;52468;40.116;18.296;2023-05-09T12:30:51;8.10;;;5.67;;
51810;SDS011;52468;40.116;18.296;2023-05-09T12:33:24;6.50;;;5.73;;
51810;SDS011;52468;40.116;18.296;2023-05-09T12:36:08;6.50;;;5.00;;
51810;SDS011;52468;40.116;18.296;2023-05-09T12:38:37;7.77;;;5.40;;
51810;SDS011;52468;40.116;18.296;2023-05-09T12:41:06;10.20;;;5.00;;
51810;SDS011;52468;40.116;18.296;2023-05-09T12:43:39;7.30;;;4.80;;
51810;SDS011;52468;40.116;18.296;2023-05-09T12:46:07;9.83;;;6.10;;
51810;SDS011;52468;40.116;18.296;2023-05-09T12:48:38;7.23;;;5.47;;
51810;SDS011;52468;40.116;18.296;2023-05-09T12:51:06;6.60;;;5.80;;
51810;SDS011;52468;40.116;18.296;2023-05-09T12:53:37;6.63;;;5.53;;
51810;SDS011;52468;40.116;18.296;2023-05-09T12:56:16;11.55;;;6.20;;
51810;SDS011;52468;40.116;18.296;2023-05-09T13:01:18;5.87;;;4.87;;
51810;SDS011;52468;40.116;18.296;2023-05-09T13:04:01;10.07;;;6.67;;
51810;SDS011;52468;40.116;18.296;2023-05-09T13:06:30;8.00;;;5.65;;
51810;SDS011;52468;40.116;18.296;2023-05-09T13:09:01;8.03;;;6.13;;
51810;SDS011;52468;40.116;18.296;2023-05-09T13:11:32;8.40;;;5.57;;
51810;SDS011;52468;40.116;18.296;2023-05-09T13:14:01;10.30;;;5.27;;
51810;SDS011;52468;40.116;18.296;2023-05-09T13:16:30;6.83;;;5.73;;
51810;SDS011;52468;40.116;18.296;2023-05-09T13:18:58;6.50;;;5.37;;
51810;SDS011;52468;40.116;18.296;2023-05-09T13:21:27;9.43;;;7.03;;
51810;SDS011;52468;40.116;18.296;2023-05-09T13:23:55;6.83;;;5.50;;
51810;SDS011;52468;40.116;18.296;2023-05-09T13:26:26;9.17;;;5.27;;
51810;SDS011;52468;40.116;18.296;2023-05-09T13:28:55;8.97;;;5.60;;
51810;SDS011;52468;40.116;18.296;2023-05-09T13:31:23;8.40;;;5.40;;
51810;SDS011;52468;40.116;18.296;2023-05-09T13:33:51;8.27;;;5.30;;
51810;SDS011;52468;40.116;18.296;2023-05-09T13:36:19;6.50;;;5.80;;
51810;SDS011;52468;40.116;18.296;2023-05-09T13:38:47;8.17;;;5.37;;
51810;SDS011;52468;40.116;18.296;2023-05-09T13:41:15;7.77;;;5.60;;
51810;SDS011;52468;40.116;18.296;2023-05-09T13:43:47;7.07;;;4.57;;
51810;SDS011;52468;40.116;18.296;2023-05-09T13:46:14;6.47;;;5.03;;
51810;SDS011;52468;40.116;18.296;2023-05-09T13:48:42;6.73;;;4.47;;
51810;SDS011;52468;40.116;18.296;2023-05-09T13:51:10;7.50;;;5.67;;
51810;SDS011;52468;40.116;18.296;2023-05-09T13:53:38;7.50;;;5.80;;
51810;SDS011;52468;40.116;18.296;2023-05-09T13:56:06;9.10;;;5.70;;
51810;SDS011;52468;40.116;18.296;2023-05-09T13:58:35;6.10;;;4.97;;
51810;SDS011;52468;40.116;18.296;2023-05-09T14:01:03;8.97;;;6.50;;
51810;SDS011;52468;40.116;18.296;2023-05-09T14:03:31;8.13;;;5.30;;
51810;SDS011;52468;40.116;18.296;2023-05-09T14:05:59;6.93;;;5.37;;
51810;SDS011;52468;40.116;18.296;2023-05-09T14:08:27;9.40;;;7.10;;
51810;SDS011;52468;40.116;18.296;2023-05-09T14:10:55;9.40;;;4.63;;
51810;SDS011;52468;40.116;18.296;2023-05-09T14:13:23;9.60;;;6.50;;
51810;SDS011;52468;40.116;18.296;2023-05-09T14:15:51;6.40;;;5.80;;
51810;SDS011;52468;40.116;18.296;2023-05-09T14:18:19;10.87;;;5.70;;
51810;SDS011;52468;40.116;18.296;2023-05-09T14:20:47;9.00;;;5.53;;
51810;SDS011;52468;40.116;18.296;2023-05-09T14:23:15;9.33;;;6.13;;
51810;SDS011;52468;40.116;18.296;2023-05-09T14:25:43;8.60;;;5.60;;
51810;SDS011;52468;40.116;18.296;2023-05-09T14:28:11;10.23;;;5.53;;
51810;SDS011;52468;40.116;18.296;2023-05-09T14:30:39;8.47;;;6.73;;
51810;SDS011;52468;40.116;18.296;2023-05-09T14:33:06;8.27;;;5.73;;
51810;SDS011;52468;40.116;18.296;2023-05-09T14:35:34;12.30;;;5.47;;
51810;SDS011;52468;40.116;18.296;2023-05-09T14:38:03;8.53;;;6.53;;
51810;SDS011;52468;40.116;18.296;2023-05-09T14:40:31;12.83;;;7.20;;
51810;SDS011;52468;40.116;18.296;2023-05-09T14:42:59;8.00;;;6.53;;
51810;SDS011;52468;40.116;18.296;2023-05-09T14:45:28;11.00;;;7.10;;
51810;SDS011;52468;40.116;18.296;2023-05-09T14:47:57;6.03;;;5.37;;
51810;SDS011;52468;40.116;18.296;2023-05-09T14:50:26;9.97;;;6.87;;
51810;SDS011;52468;40.116;18.296;2023-05-09T14:52:54;8.67;;;7.53;;
51810;SDS011;52468;40.116;18.296;2023-05-09T14:55:22;10.07;;;6.80;;
51810;SDS011;52468;40.116;18.296;2023-05-09T14:57:50;8.83;;;7.17;;
51810;SDS011;52468;40.116;18.296;2023-05-09T15:00:18;9.73;;;6.33;;
51810;SDS011;52468;40.116;18.296;2023-05-09T15:02:47;8.57;;;6.40;;
51810;SDS011;52468;40.116;18.296;2023-05-09T15:05:16;8.27;;;5.63;;
51810;SDS011;52468;40.116;18.296;2023-05-09T15:07:44;7.83;;;5.90;;
51810;SDS011;52468;40.116;18.296;2023-05-09T15:10:12;7.03;;;6.33;;